createdAt,value
2019-04-20T00:01:48.578Z,99.90
2019-04-20T00:04:22.565Z,99.90
2019-04-20T00:06:49.789Z,99.90
2019-04-20T00:09:19.420Z,99.90
2019-04-20T00:11:53.584Z,99.90
2019-04-20T00:14:19.231Z,99.90
2019-04-20T00:16:44.188Z,99.90
2019-04-20T00:19:22.533Z,99.90
2019-04-20T00:21:57.744Z,99.90
2019-04-20T00:24:23.360Z,99.90
2019-04-20T00:29:35.276Z,99.90
2019-04-20T00:32:00.487Z,99.90
2019-04-20T00:34:24.573Z,99.90
2019-04-20T00:36:47.443Z,99.90
2019-04-20T00:39:17.201Z,99.90
2019-04-20T00:41:51.951Z,99.90
2019-04-20T00:44:22.065Z,99.90
2019-04-20T00:46:55.562Z,99.90
2019-04-20T00:49:27.599Z,99.90
2019-04-20T00:52:00.479Z,99.90
2019-04-20T00:54:11.588Z,99.90
2019-04-20T00:56:39.360Z,99.90
2019-04-20T00:59:20.524Z,99.90
2019-04-20T01:01:52.332Z,99.90
2019-04-20T01:04:26.902Z,99.90
2019-04-20T01:07:04.578Z,99.90
2019-04-20T01:09:24.622Z,99.90
2019-04-20T01:11:52.876Z,99.90
2019-04-20T01:14:27.255Z,99.90
2019-04-20T01:16:56.935Z,99.90
2019-04-20T01:19:20.576Z,99.90
2019-04-20T01:21:54.854Z,99.90
2019-04-20T01:24:24.869Z,99.90
2019-04-20T01:29:26.372Z,99.90
2019-04-20T01:32:02.205Z,99.90
2019-04-20T01:34:32.221Z,99.90
2019-04-20T01:37:02.974Z,99.90
2019-04-20T01:39:28.422Z,99.90
2019-04-20T01:41:49.966Z,99.90
2019-04-20T01:44:24.578Z,99.90
2019-04-20T01:46:54.861Z,99.90
2019-04-20T01:49:21.001Z,99.90
2019-04-20T01:51:57.499Z,99.90
2019-04-20T01:54:34.058Z,99.90
2019-04-20T01:56:58.037Z,99.90
2019-04-20T01:59:31.995Z,99.90
2019-04-20T02:02:09.623Z,99.90
2019-04-20T02:04:40.412Z,99.90
2019-04-20T02:07:06.659Z,99.90
2019-04-20T02:09:37.875Z,99.90
2019-04-20T02:12:08.251Z,99.90
2019-04-20T02:14:41.193Z,99.90
2019-04-20T02:17:11.739Z,99.90
2019-04-20T02:19:52.624Z,99.90
2019-04-20T02:22:13.614Z,99.90
2019-04-20T02:24:30.006Z,99.90
2019-04-20T02:26:57.956Z,99.90
2019-04-20T02:29:52.030Z,99.90
2019-04-20T02:32:26.556Z,99.90
2019-04-20T02:35:01.503Z,99.90
2019-04-20T02:37:59.857Z,99.90
2019-04-20T02:40:19.264Z,99.90
2019-04-20T02:46:15.513Z,99.90
2019-04-20T02:47:47.162Z,99.90
2019-04-20T02:50:13.868Z,99.90
2019-04-20T02:52:49.029Z,99.90
2019-04-20T02:57:49.375Z,99.90
2019-04-20T03:00:19.436Z,99.90
2019-04-20T03:02:23.572Z,99.90
2019-04-20T03:04:47.162Z,99.90
2019-04-20T03:07:19.698Z,99.90
2019-04-20T03:09:58.274Z,99.90
2019-04-20T03:12:33.550Z,99.90
2019-04-20T03:14:50.309Z,99.90
2019-04-20T03:17:29.723Z,99.90
2019-04-20T03:19:47.633Z,99.90
2019-04-20T03:22:33.517Z,99.90
2019-04-20T03:24:55.401Z,99.90
2019-04-20T03:27:19.196Z,99.90
2019-04-20T03:29:55.259Z,99.90
2019-04-20T03:37:33.401Z,99.90
2019-04-20T03:39:48.856Z,99.90
2019-04-20T03:42:05.126Z,99.90
2019-04-20T03:44:34.265Z,99.90
2019-04-20T03:47:07.759Z,99.90
2019-04-20T03:49:54.860Z,99.90
2019-04-20T03:52:27.455Z,99.90
2019-04-20T03:55:03.138Z,99.90
2019-04-20T03:57:49.521Z,99.90
2019-04-20T04:00:24.912Z,99.90
2019-04-20T04:03:12.952Z,99.90
2019-04-20T04:05:42.543Z,99.90
2019-04-20T04:08:06.190Z,99.90
2019-04-20T04:10:36.394Z,99.90
2019-04-20T04:13:07.250Z,99.90
2019-04-20T04:15:36.219Z,99.90
2019-04-20T04:18:13.599Z,99.90
2019-04-20T04:20:43.624Z,99.90
2019-04-20T04:23:22.011Z,99.90
2019-04-20T04:25:58.378Z,99.90
2019-04-20T04:28:31.428Z,99.90
2019-04-20T04:31:04.184Z,99.90
2019-04-20T04:35:59.304Z,99.90
2019-04-20T04:38:37.843Z,99.90
2019-04-20T04:43:34.446Z,99.90
2019-04-20T04:45:44.714Z,99.90
2019-04-20T04:48:27.449Z,99.90
2019-04-20T04:50:56.089Z,99.90
2019-04-20T04:53:30.338Z,99.90
2019-04-20T04:55:57.515Z,99.90
2019-04-20T04:58:17.726Z,99.90
2019-04-20T05:00:46.643Z,99.90
2019-04-20T05:03:35.865Z,99.90
2019-04-20T05:06:08.888Z,99.90
2019-04-20T05:08:25.015Z,99.90
2019-04-20T05:10:47.877Z,99.90
2019-04-20T05:13:15.807Z,99.90
2019-04-20T05:15:58.299Z,99.90
2019-04-20T05:18:41.193Z,99.90
2019-04-20T05:21:04.424Z,99.90
2019-04-20T05:23:41.016Z,99.90
2019-04-20T05:26:39.837Z,99.90
2019-04-20T05:28:58.955Z,99.90
2019-04-20T05:31:18.673Z,99.90
2019-04-20T05:34:08.502Z,99.90
2019-04-20T05:36:40.047Z,99.90
2019-04-20T05:39:14.463Z,99.90
2019-04-20T05:41:32.699Z,99.90
2019-04-20T05:43:59.801Z,99.90
2019-04-20T05:46:32.089Z,99.90
2019-04-20T05:49:13.792Z,99.90
2019-04-20T05:51:40.913Z,99.90
2019-04-20T05:54:05.705Z,99.90
2019-04-20T05:56:37.229Z,99.90
2019-04-20T06:01:31.786Z,99.90
2019-04-20T06:03:57.889Z,99.90
2019-04-20T06:06:32.827Z,99.90
2019-04-20T06:11:31.684Z,99.90
2019-04-20T06:13:50.547Z,99.90
2019-04-20T06:16:40.988Z,99.90
2019-04-20T06:19:14.284Z,99.90
2019-04-20T06:21:50.379Z,99.90
2019-04-20T06:24:20.769Z,99.90
2019-04-20T06:26:56.570Z,99.90
2019-04-20T06:29:15.682Z,99.90
2019-04-20T06:31:48.659Z,99.90
2019-04-20T06:34:30.128Z,99.90
2019-04-20T06:36:49.780Z,99.90
2019-04-20T06:39:41.491Z,99.90
2019-04-20T06:49:33.157Z,99.90
2019-04-20T06:52:12.974Z,99.90
2019-04-20T06:54:36.098Z,99.90
2019-04-20T06:57:07.302Z,99.90
2019-04-20T06:59:38.954Z,99.90
2019-04-20T07:02:11.554Z,99.90
2019-04-20T07:04:41.987Z,99.90
2019-04-20T07:09:49.597Z,99.90
2019-04-20T07:12:02.978Z,99.90
2019-04-20T07:14:27.472Z,99.90
2019-04-20T07:17:24.449Z,99.90
2019-04-20T07:19:51.782Z,99.90
2019-04-20T07:25:12.834Z,99.90
2019-04-20T07:27:22.905Z,99.90
2019-04-20T07:30:08.085Z,99.90
2019-04-20T07:32:17.769Z,99.90
2019-04-20T07:34:51.584Z,99.90
2019-04-20T07:37:49.767Z,99.90
2019-04-20T07:39:55.220Z,99.90
2019-04-20T07:42:29.000Z,99.90
2019-04-20T07:44:58.042Z,99.90
2019-04-20T07:49:48.308Z,99.90
2019-04-20T07:51:59.506Z,99.90
2019-04-20T07:57:14.597Z,99.90
2019-04-20T07:59:39.739Z,99.90
2019-04-20T08:02:38.132Z,99.90
2019-04-20T08:05:04.390Z,99.60
2019-04-20T08:07:35.147Z,99.90
2019-04-20T08:09:55.700Z,97.80
2019-04-20T08:12:41.755Z,95.30
2019-04-20T08:15:13.402Z,93.90
2019-04-20T08:20:05.744Z,90.30
2019-04-20T08:22:42.116Z,90.80
2019-04-20T08:25:01.946Z,85.40
2019-04-20T08:27:19.429Z,86.20
2019-04-20T08:30:04.915Z,82.60
2019-04-20T08:32:53.915Z,80.70
2019-04-20T08:43:15.180Z,82.30
2019-04-20T08:45:34.899Z,82.40
2019-04-20T08:50:29.614Z,71.20
2019-04-20T08:53:08.898Z,74.30
2019-04-20T08:55:23.922Z,70.70
2019-04-20T08:57:37.944Z,71.00
2019-04-20T09:00:08.804Z,68.90
2019-04-20T09:02:36.906Z,69.50
2019-04-20T09:05:13.575Z,64.20
2019-04-20T09:07:48.933Z,66.20
2019-04-20T09:12:54.845Z,62.40
2019-04-20T09:15:08.246Z,63.20
2019-04-20T09:17:48.616Z,62.90
2019-04-20T09:20:16.164Z,64.20
2019-04-20T09:23:02.181Z,57.90
2019-04-20T09:25:48.657Z,55.50
2019-04-20T09:28:11.646Z,56.60
2019-04-20T09:33:41.776Z,54.20
2019-04-20T09:36:09.753Z,52.70
2019-04-20T09:38:41.837Z,51.10
2019-04-20T09:41:13.759Z,50.00
2019-04-20T09:43:41.167Z,56.30
2019-04-20T09:46:10.151Z,50.30
2019-04-20T09:48:55.574Z,48.10
2019-04-20T09:51:32.942Z,46.40
2019-04-20T09:54:01.101Z,46.40
2019-04-20T09:56:32.376Z,47.80
2019-04-20T09:59:08.396Z,47.70
2019-04-20T10:03:45.603Z,45.90
2019-04-20T10:06:13.823Z,45.50
2019-04-20T10:08:50.661Z,45.70
2019-04-20T10:11:11.764Z,45.10
2019-04-20T10:13:40.476Z,45.50
2019-04-20T10:16:08.219Z,43.90
2019-04-20T10:18:41.399Z,43.30
2019-04-20T10:21:05.449Z,42.70
2019-04-20T10:23:34.453Z,45.20
2019-04-20T10:33:27.866Z,40.10
2019-04-20T10:35:55.702Z,38.10
2019-04-20T10:38:34.001Z,38.20
2019-04-20T10:41:09.508Z,39.10
2019-04-20T10:43:30.209Z,36.90
2019-04-20T10:45:59.194Z,37.80
2019-04-20T10:53:23.717Z,36.20
2019-04-20T10:58:19.724Z,36.30
2019-04-20T11:00:49.887Z,37.70
2019-04-20T11:03:17.824Z,38.30
2019-04-20T11:05:46.801Z,34.30
2019-04-20T11:08:22.401Z,34.50
2019-04-20T11:11:00.246Z,35.60
2019-04-20T11:13:19.693Z,36.00
2019-04-20T11:15:48.419Z,33.50
2019-04-20T11:18:17.587Z,34.20
2019-04-20T11:20:45.682Z,33.90
2019-04-20T11:23:13.980Z,33.80
2019-04-20T11:25:42.133Z,32.80
2019-04-20T11:28:10.209Z,32.70
2019-04-20T11:30:38.386Z,32.30
2019-04-20T11:35:37.652Z,32.80
2019-04-20T11:38:05.022Z,32.10
2019-04-20T11:43:01.682Z,32.60
2019-04-20T11:45:30.826Z,32.20
2019-04-20T11:47:58.719Z,30.70
2019-04-20T11:50:27.497Z,31.10
2019-04-20T11:52:55.379Z,32.60
2019-04-20T11:55:24.281Z,32.60
2019-04-20T11:57:54.191Z,31.70
2019-04-20T12:00:25.296Z,32.60
2019-04-20T12:03:19.460Z,33.10
2019-04-20T12:05:44.512Z,30.10
2019-04-20T12:08:09.242Z,29.30
2019-04-20T12:10:37.243Z,28.90
2019-04-20T12:13:05.882Z,32.60
2019-04-20T12:15:36.566Z,29.70
2019-04-20T12:18:05.321Z,30.10
2019-04-20T12:20:34.485Z,29.10
2019-04-20T12:23:02.418Z,29.00
2019-04-20T12:25:34.187Z,29.90
2019-04-20T12:28:05.362Z,28.90
2019-04-20T12:30:33.487Z,30.30
2019-04-20T12:35:30.315Z,28.80
2019-04-20T12:37:58.938Z,28.30
2019-04-20T12:40:28.034Z,28.20
2019-04-20T12:42:57.107Z,28.00
2019-04-20T12:45:25.916Z,28.80
2019-04-20T12:47:53.804Z,30.20
2019-04-20T12:50:21.724Z,30.40
2019-04-20T12:52:50.316Z,28.60
2019-04-20T12:55:18.825Z,28.00
2019-04-20T12:57:46.997Z,28.50
2019-04-20T13:00:15.588Z,28.90
2019-04-20T13:02:43.370Z,28.00
2019-04-20T13:05:11.279Z,27.30
2019-04-20T13:07:44.856Z,27.90
2019-04-20T13:10:11.577Z,27.00
2019-04-20T13:12:42.472Z,27.60
2019-04-20T13:15:32.118Z,27.80
2019-04-20T13:18:01.225Z,27.40
2019-04-20T13:20:30.040Z,27.30
2019-04-20T13:22:59.356Z,27.50
2019-04-20T13:25:30.835Z,26.60
2019-04-20T13:27:58.971Z,44.70
2019-04-20T13:30:28.530Z,27.40
2019-04-20T13:32:57.484Z,26.70
2019-04-20T13:35:26.086Z,26.90
2019-04-20T13:37:56.086Z,27.60
2019-04-20T13:40:23.948Z,28.10
2019-04-20T13:42:51.928Z,28.00
2019-04-20T13:45:21.033Z,28.00
2019-04-20T13:47:49.051Z,27.10
2019-04-20T13:50:17.981Z,27.10
2019-04-20T13:52:46.872Z,26.80
2019-04-20T13:55:15.099Z,26.70
2019-04-20T13:58:01.260Z,26.30
2019-04-20T14:00:33.874Z,27.60
2019-04-20T14:03:16.381Z,27.30
2019-04-20T14:05:44.691Z,26.30
2019-04-20T14:08:21.072Z,27.10
2019-04-20T14:10:49.248Z,26.50
2019-04-20T14:13:20.104Z,27.10
2019-04-20T14:15:47.143Z,26.40
2019-04-20T14:18:22.860Z,25.70
2019-04-20T14:20:52.070Z,27.00
2019-04-20T14:23:21.067Z,26.70
2019-04-20T14:25:49.148Z,25.70
2019-04-20T14:28:18.680Z,26.30
2019-04-20T14:30:47.757Z,27.70
2019-04-20T14:33:16.869Z,26.20
2019-04-20T14:35:45.136Z,25.80
2019-04-20T14:38:22.195Z,25.50
2019-04-20T14:40:50.346Z,26.40
2019-04-20T14:43:19.373Z,26.90
2019-04-20T14:45:47.228Z,25.80
2019-04-20T14:48:14.854Z,24.80
2019-04-20T14:50:43.441Z,25.70
2019-04-20T14:53:11.530Z,24.60
2019-04-20T14:55:39.675Z,25.10
2019-04-20T14:58:11.240Z,25.20
2019-04-20T15:00:59.009Z,25.80
2019-04-20T15:03:28.469Z,25.20
2019-04-20T15:05:57.743Z,24.30
2019-04-20T15:08:26.887Z,25.00
2019-04-20T15:10:54.650Z,24.90
2019-04-20T15:13:22.552Z,25.10
2019-04-20T15:15:50.677Z,24.00
2019-04-20T15:18:29.255Z,24.80
2019-04-20T15:20:59.522Z,24.80
2019-04-20T15:23:27.885Z,25.20
2019-04-20T15:25:55.677Z,24.50
2019-04-20T15:28:24.141Z,24.10
2019-04-20T15:30:52.160Z,24.70
2019-04-20T15:33:20.965Z,25.20
2019-04-20T15:35:50.234Z,26.20
2019-04-20T15:38:22.982Z,25.00
2019-04-20T15:40:51.148Z,25.60
2019-04-20T15:43:21.532Z,25.90
2019-04-20T15:45:49.472Z,25.80
2019-04-20T15:48:19.917Z,25.40
2019-04-20T15:50:47.853Z,24.80
2019-04-20T15:53:15.698Z,24.90
2019-04-20T15:55:45.242Z,24.50
2019-04-20T15:58:12.755Z,25.50
2019-04-20T16:00:40.671Z,25.40
2019-04-20T16:03:09.968Z,24.50
2019-04-20T16:05:45.245Z,25.40
2019-04-20T16:08:36.739Z,25.10
2019-04-20T16:11:04.995Z,25.30
2019-04-20T16:13:37.966Z,25.30
2019-04-20T16:16:03.701Z,26.30
2019-04-20T16:18:32.824Z,27.10
2019-04-20T16:21:09.198Z,27.10
2019-04-20T16:23:32.458Z,27.00
2019-04-20T16:26:17.712Z,26.90
2019-04-20T16:28:45.883Z,26.20
2019-04-20T16:31:15.324Z,25.70
2019-04-20T16:33:44.209Z,26.40
2019-04-20T16:36:12.344Z,26.40
2019-04-20T16:38:41.737Z,26.30
2019-04-20T16:41:10.433Z,27.30
2019-04-20T16:46:07.202Z,28.20
2019-04-20T16:48:44.340Z,29.20
2019-04-20T16:51:13.200Z,28.70
2019-04-20T16:53:41.393Z,34.40
2019-04-20T16:56:10.357Z,30.10
2019-04-20T16:58:38.283Z,31.90
2019-04-20T17:01:07.587Z,30.80
2019-04-20T17:03:44.358Z,31.00
2019-04-20T17:06:04.822Z,31.30
2019-04-20T17:11:01.556Z,31.60
2019-04-20T17:13:36.691Z,31.80
2019-04-20T17:15:59.568Z,32.00
2019-04-20T17:18:27.562Z,32.30
2019-04-20T17:20:56.764Z,32.30
2019-04-20T17:23:25.432Z,32.90
2019-04-20T17:25:53.159Z,33.60
2019-04-20T17:28:25.183Z,33.00
2019-04-20T17:31:03.256Z,33.50
2019-04-20T17:33:40.141Z,33.10
2019-04-20T17:36:10.925Z,32.90
2019-04-20T17:38:37.507Z,33.20
2019-04-20T17:41:16.703Z,33.50
2019-04-20T17:43:38.895Z,34.60
2019-04-20T17:48:42.186Z,34.40
2019-04-20T17:51:17.731Z,35.80
2019-04-20T17:53:54.802Z,36.10
2019-04-20T17:56:17.441Z,37.60
2019-04-20T18:01:32.920Z,37.40
2019-04-20T18:09:18.487Z,43.50
2019-04-20T18:11:41.995Z,41.70
2019-04-20T18:14:17.344Z,76.10
2019-04-20T18:19:16.979Z,45.70
2019-04-20T18:24:14.527Z,41.70
2019-04-20T18:26:57.671Z,42.60
2019-04-20T18:29:26.316Z,43.40
2019-04-20T18:31:41.781Z,43.80
2019-04-20T18:34:14.480Z,43.80
2019-04-20T18:36:44.058Z,44.40
2019-04-20T18:39:14.785Z,45.10
2019-04-20T18:41:48.579Z,45.00
2019-04-20T18:44:10.829Z,45.50
2019-04-20T18:47:02.762Z,45.70
2019-04-20T18:51:48.045Z,46.00
2019-04-20T18:54:21.420Z,46.60
2019-04-20T18:59:31.868Z,46.40
2019-04-20T19:01:55.112Z,47.50
2019-04-20T19:04:23.707Z,47.40
2019-04-20T19:06:52.099Z,47.30
2019-04-20T19:09:24.966Z,47.70
2019-04-20T19:11:55.880Z,47.70
2019-04-20T19:17:06.747Z,47.90
2019-04-20T19:19:37.521Z,48.70
2019-04-20T19:21:58.392Z,48.80
2019-04-20T19:24:29.283Z,49.20
2019-04-20T19:27:00.438Z,49.90
2019-04-20T19:29:35.644Z,49.80
2019-04-20T19:32:18.220Z,49.80
2019-04-20T19:34:42.936Z,50.30
2019-04-20T19:37:10.142Z,50.40
2019-04-20T19:39:50.976Z,51.00
2019-04-20T19:42:20.725Z,50.80
2019-04-20T19:44:49.520Z,51.30
2019-04-20T19:49:43.844Z,51.40
2019-04-20T19:52:36.682Z,52.50
2019-04-20T19:54:46.490Z,52.80
2019-04-20T19:57:16.328Z,53.20
2019-04-20T19:59:36.701Z,54.60
2019-04-20T20:01:57.896Z,55.60
2019-04-20T20:04:25.892Z,57.00
2019-04-20T20:09:47.527Z,58.20
2019-04-20T20:12:12.249Z,59.80
2019-04-20T20:17:26.780Z,62.30
2019-04-20T20:20:03.796Z,64.00
2019-04-20T20:24:33.394Z,66.30
2019-04-20T20:27:06.152Z,71.80
2019-04-20T20:29:56.916Z,90.80
2019-04-20T20:32:21.449Z,74.40
2019-04-20T20:34:45.243Z,74.90
2019-04-20T20:37:18.158Z,85.50
2019-04-20T20:39:51.089Z,99.90
2019-04-20T20:42:23.228Z,99.90
2019-04-20T20:44:49.871Z,99.90
2019-04-20T20:47:31.352Z,99.90
2019-04-20T20:50:03.151Z,99.90
2019-04-20T20:52:29.121Z,99.90
2019-04-20T20:54:49.443Z,99.90
2019-04-20T20:57:11.361Z,99.90
2019-04-20T20:59:43.022Z,99.90
2019-04-20T21:02:12.408Z,99.90
2019-04-20T21:04:35.418Z,99.90
2019-04-20T21:07:04.482Z,99.90
2019-04-20T21:09:41.677Z,99.90
2019-04-20T21:12:14.918Z,99.90
2019-04-20T21:14:42.152Z,99.90
2019-04-20T21:17:16.197Z,99.90
2019-04-20T21:19:55.009Z,99.90
2019-04-20T21:24:51.075Z,99.90
2019-04-20T21:27:21.948Z,99.90
2019-04-20T21:29:52.556Z,99.90
2019-04-20T21:32:19.859Z,99.90
2019-04-20T21:34:52.110Z,99.90
2019-04-20T21:37:20.030Z,99.90
2019-04-20T21:39:52.259Z,99.90
2019-04-20T21:42:19.429Z,99.90
2019-04-20T21:44:48.363Z,99.90
2019-04-20T21:47:15.683Z,99.90
2019-04-20T21:49:55.725Z,99.90
2019-04-20T21:52:22.853Z,99.90
2019-04-20T21:54:42.356Z,99.90
2019-04-20T21:57:12.560Z,99.90
2019-04-20T21:59:44.904Z,99.90
2019-04-20T22:02:15.276Z,99.90
2019-04-20T22:04:39.433Z,99.90
2019-04-20T22:07:08.078Z,99.90
2019-04-20T22:09:41.302Z,99.90
2019-04-20T22:17:03.654Z,99.90
2019-04-20T22:19:48.960Z,99.90
2019-04-20T22:22:18.491Z,99.90
2019-04-20T22:24:50.583Z,99.90
2019-04-20T22:29:38.499Z,99.90
2019-04-20T22:32:11.560Z,99.90
2019-04-20T22:34:35.707Z,99.90
2019-04-20T22:37:04.406Z,99.90
2019-04-20T22:39:42.159Z,99.90
2019-04-20T22:42:11.283Z,99.90
2019-04-20T22:44:36.782Z,99.90
2019-04-20T22:47:12.518Z,99.90
2019-04-20T22:49:48.262Z,99.90
2019-04-20T22:52:18.036Z,99.90
2019-04-20T22:54:47.840Z,99.90
2019-04-20T22:59:44.759Z,99.90
2019-04-20T23:02:02.367Z,99.90
2019-04-20T23:04:30.866Z,99.90
2019-04-20T23:06:59.150Z,99.90
2019-04-20T23:09:26.926Z,99.90
2019-04-20T23:14:24.616Z,99.90
2019-04-20T23:16:54.440Z,99.90
2019-04-20T23:19:32.060Z,99.90
2019-04-20T23:21:57.534Z,99.90
2019-04-20T23:24:21.889Z,99.90
2019-04-20T23:26:50.818Z,99.90
2019-04-20T23:29:21.424Z,99.90
2019-04-20T23:31:55.547Z,99.90
2019-04-20T23:34:22.806Z,99.90
2019-04-20T23:36:50.207Z,99.90
2019-04-20T23:39:17.008Z,99.90
2019-04-20T23:41:53.660Z,99.90
2019-04-20T23:44:19.156Z,99.90
2019-04-20T23:47:07.761Z,99.90
2019-04-20T23:49:50.628Z,99.90
2019-04-20T23:52:26.076Z,99.90
2019-04-20T23:54:33.640Z,99.90
2019-04-20T23:56:59.825Z,99.90
2019-04-20T23:59:41.119Z,99.90
